Time;durP1;ratioP1;P1;durP2;ratioP2;P2;SDS_P1;SDS_P2;PMS_P1;PMS_P2;Temp;Humidity;BMP_temperature;BMP_pressure;BME280_temperature;BME280_humidity;BME280_pressure;Samples;Min_cycle;Max_cycle;Signal;HPM_P1;HPM_P2
2022/03/28 00:01:45;;;;;;;4.75;3.33;;;18.60;34.70;;;;;;5087314;28;46921;-27
2022/03/28 00:04:11;;;;;;;4.75;3.75;;;18.50;34.70;;;;;;5086896;28;47884;-18
2022/03/28 00:06:38;;;;;;;3.88;3.38;;;18.50;34.70;;;;;;5087202;28;46897;-26
2022/03/28 00:09:05;;;;;;;5.55;3.97;;;18.50;34.80;;;;;;5087053;28;46867;-27
2022/03/28 00:11:33;;;;;;;3.88;3.58;;;18.50;35.40;;;;;;5087464;28;47174;-27
2022/03/28 00:14:00;;;;;;;5.35;3.60;;;18.50;34.80;;;;;;5086896;28;49047;-17
2022/03/28 00:16:27;;;;;;;4.07;3.60;;;18.50;34.70;;;;;;5086797;28;47419;-18
2022/03/28 00:18:53;;;;;;;3.90;3.33;;;18.40;34.80;;;;;;5086679;27;46811;-26
2022/03/28 00:21:20;;;;;;;5.47;3.45;;;18.40;34.80;;;;;;5087260;28;47284;-26
2022/03/28 00:23:47;;;;;;;4.68;3.95;;;18.40;34.80;;;;;;5086683;28;48340;-18
2022/03/28 00:26:14;;;;;;;7.25;4.00;;;18.40;34.70;;;;;;5087217;28;46884;-23
2022/03/28 00:28:42;;;;;;;3.72;3.40;;;18.40;34.70;;;;;;5086769;28;46900;-27
2022/03/28 00:31:08;;;;;;;4.00;3.60;;;18.30;34.80;;;;;;5086788;28;47300;-27
2022/03/28 00:33:35;;;;;;;4.90;3.75;;;18.30;34.80;;;;;;5086479;28;46934;-27
2022/03/28 00:36:02;;;;;;;4.65;3.50;;;18.30;34.80;;;;;;5086739;28;47001;-19
2022/03/28 00:38:29;;;;;;;4.82;3.45;;;18.30;34.80;;;;;;5086775;28;47098;-18
2022/03/28 00:40:55;;;;;;;3.97;3.58;;;18.30;34.80;;;;;;5086959;28;47136;-27
2022/03/28 00:43:22;;;;;;;3.95;3.50;;;18.30;34.80;;;;;;5086064;28;48737;-27
2022/03/28 00:45:50;;;;;;;4.90;3.42;;;18.20;34.80;;;;;;5086661;28;46959;-18
2022/03/28 00:48:17;;;;;;;4.50;3.55;;;18.20;34.70;;;;;;5086418;28;47026;-27
2022/03/28 00:50:44;;;;;;;3.60;3.30;;;18.20;34.80;;;;;;5086808;28;46908;-18
2022/03/28 00:53:11;;;;;;;5.38;4.07;;;18.20;34.80;;;;;;5085553;28;48123;-18
2022/03/28 00:55:38;;;;;;;4.72;4.10;;;18.10;34.70;;;;;;5086663;28;46781;-27
2022/03/28 00:58:05;;;;;;;3.78;3.42;;;18.10;34.70;;;;;;5086160;28;46874;-27
2022/03/28 01:00:32;;;;;;;4.50;3.60;;;18.10;34.70;;;;;;5086621;28;46933;-19
2022/03/28 01:03:00;;;;;;;4.05;3.65;;;18.10;34.70;;;;;;5086446;28;49080;-18
2022/03/28 01:05:27;;;;;;;5.00;4.00;;;18.10;34.70;;;;;;5086195;28;47491;-26
2022/03/28 01:07:55;;;;;;;4.13;3.72;;;18.10;34.70;;;;;;5086459;28;46904;-27
2022/03/28 01:10:22;;;;;;;5.30;3.72;;;18.10;34.70;;;;;;5086336;28;47088;-26
2022/03/28 01:12:49;;;;;;;4.28;3.45;;;18.00;34.60;;;;;;5086087;28;48130;-27
2022/03/28 01:15:15;;;;;;;5.13;3.70;;;18.00;35.30;;;;;;5086359;28;47305;-18
2022/03/28 01:20:28;;;;;;;4.88;3.92;;;18.00;34.60;;;;;;5086674;28;46970;-16
2022/03/28 01:22:56;;;;;;;3.88;3.40;;;18.00;34.60;;;;;;5086079;28;48042;-17
2022/03/28 01:25:24;;;;;;;4.80;3.90;;;17.90;34.60;;;;;;5085791;28;47029;-25
2022/03/28 01:27:52;;;;;;;5.35;4.03;;;17.90;34.70;;;;;;5085847;28;47031;-15
2022/03/28 01:30:19;;;;;;;4.00;3.60;;;17.90;34.70;;;;;;5085283;27;46908;-27
2022/03/28 01:32:46;;;;;;;4.32;3.72;;;17.90;34.70;;;;;;5085664;28;48111;-17
2022/03/28 01:35:13;;;;;;;6.00;3.90;;;17.90;34.70;;;;;;5085810;28;47437;-27
2022/03/28 01:37:40;;;;;;;4.35;3.88;;;17.90;34.70;;;;;;5085852;28;46819;-18
2022/03/28 01:40:09;;;;;;;5.03;3.78;;;17.80;34.60;;;;;;5086032;28;47291;-27
2022/03/28 01:42:36;;;;;;;4.80;3.72;;;17.80;34.70;;;;;;5085564;28;46867;-27
2022/03/28 01:45:02;;;;;;;4.07;3.40;;;17.80;34.60;;;;;;5085901;28;47307;-27
2022/03/28 01:47:29;;;;;;;4.38;3.88;;;17.80;34.70;;;;;;5085692;28;46959;-18
2022/03/28 01:49:56;;;;;;;3.85;3.45;;;17.80;34.70;;;;;;5085984;28;46941;-19
2022/03/28 01:52:22;;;;;;;6.88;3.67;;;17.80;34.60;;;;;;5085283;28;47798;-18
2022/03/28 01:54:49;;;;;;;4.68;3.83;;;17.80;34.70;;;;;;5085488;28;46797;-27
2022/03/28 01:57:17;;;;;;;4.47;3.80;;;17.70;34.70;;;;;;5085459;28;46737;-27
2022/03/28 01:59:44;;;;;;;4.00;3.60;;;17.70;34.70;;;;;;5085916;28;46919;-24
2022/03/28 02:02:11;;;;;;;4.25;3.60;;;17.70;34.60;;;;;;5085244;28;48126;-25
2022/03/28 02:04:37;;;;;;;4.70;3.72;;;17.70;34.60;;;;;;5085495;28;47261;-18
2022/03/28 02:07:04;;;;;;;4.00;3.60;;;17.70;34.70;;;;;;5085645;28;46926;-16
2022/03/28 02:09:31;;;;;;;5.13;3.90;;;17.70;34.70;;;;;;5085364;28;46896;-17
2022/03/28 02:11:57;;;;;;;3.70;3.33;;;17.70;34.70;;;;;;5085017;28;49100;-17
2022/03/28 02:14:25;;;;;;;4.35;3.85;;;17.60;34.70;;;;;;5085137;28;46901;-25
2022/03/28 02:16:52;;;;;;;4.00;3.60;;;17.60;35.30;;;;;;5085143;28;46791;-17
2022/03/28 02:19:19;;;;;;;3.78;3.17;;;17.60;34.70;;;;;;5085632;28;47069;-26
2022/03/28 02:21:46;;;;;;;4.53;3.67;;;17.60;34.70;;;;;;5084987;28;47056;-17
2022/03/28 02:24:12;;;;;;;4.32;3.80;;;17.60;34.70;;;;;;5084890;28;46803;-17
2022/03/28 02:26:39;;;;;;;5.00;4.05;;;17.60;34.70;;;;;;5085315;28;46912;-16
2022/03/28 02:29:06;;;;;;;5.15;3.90;;;17.60;34.70;;;;;;5085074;28;47113;-16
2022/03/28 02:31:34;;;;;;;4.13;3.72;;;17.60;34.70;;;;;;5084893;28;48918;-17
2022/03/28 02:34:01;;;;;;;5.15;3.95;;;17.50;34.70;;;;;;5084962;28;46838;-26
2022/03/28 02:36:27;;;;;;;4.32;3.60;;;17.50;34.60;;;;;;5085093;28;46926;-25
2022/03/28 02:38:54;;;;;;;3.95;3.55;;;17.50;34.60;;;;;;5085339;28;46985;-16
2022/03/28 02:41:21;;;;;;;4.82;3.83;;;17.50;34.60;;;;;;5084671;28;48125;-25
2022/03/28 02:43:48;;;;;;;4.70;3.65;;;17.50;34.60;;;;;;5087642;28;47264;-26
2022/03/28 02:46:14;;;;;;;3.90;3.50;;;17.50;34.70;;;;;;5088613;28;46805;-25
2022/03/28 02:48:42;;;;;;;3.90;3.60;;;17.40;34.70;;;;;;5088620;28;47366;-28
2022/03/28 02:51:09;;;;;;;4.82;3.67;;;17.40;34.70;;;;;;5088450;28;48199;-17
2022/03/28 02:53:36;;;;;;;4.03;3.63;;;17.40;34.60;;;;;;5087788;28;47427;-16
2022/03/28 02:56:03;;;;;;;4.65;3.90;;;17.40;34.70;;;;;;5088424;28;46938;-17
2022/03/28 02:58:29;;;;;;;5.50;4.28;;;17.40;34.70;;;;;;5088455;28;46822;-26
2022/03/28 03:00:57;;;;;;;5.68;3.78;;;17.40;34.70;;;;;;5088114;28;47842;-16
2022/03/28 03:03:24;;;;;;;5.72;3.70;;;17.30;34.60;;;;;;5088024;28;47231;-16
2022/03/28 03:05:52;;;;;;;3.53;3.22;;;17.30;34.70;;;;;;5088308;28;46900;-17
2022/03/28 03:08:19;;;;;;;3.70;3.38;;;17.30;34.70;;;;;;5088329;28;47306;-17
2022/03/28 03:10:45;;;;;;;4.05;3.47;;;17.30;34.70;;;;;;5088243;28;48229;-17
2022/03/28 03:13:12;;;;;;;4.57;3.50;;;17.30;34.80;;;;;;5087901;28;47008;-16
2022/03/28 03:15:39;;;;;;;3.95;3.55;;;17.20;34.70;;;;;;5088135;28;46856;-25
2022/03/28 03:18:06;;;;;;;4.32;3.58;;;17.20;34.80;;;;;;5088155;28;46788;-26
2022/03/28 03:20:33;;;;;;;4.50;4.00;;;17.20;34.80;;;;;;5087695;28;46946;-25
2022/03/28 03:23:01;;;;;;;4.22;3.67;;;17.20;34.80;;;;;;5087858;28;46836;-26
2022/03/28 03:25:28;;;;;;;4.60;3.72;;;17.20;34.80;;;;;;5087767;28;46933;-25
2022/03/28 03:27:55;;;;;;;4.18;3.78;;;17.20;34.80;;;;;;5087762;28;47274;-17
2022/03/28 03:30:22;;;;;;;4.93;3.72;;;17.20;34.80;;;;;;5087923;28;48148;-25
2022/03/28 03:32:49;;;;;;;4.22;3.53;;;17.10;34.80;;;;;;5087674;28;46922;-26
2022/03/28 03:35:15;;;;;;;3.95;3.55;;;17.10;34.80;;;;;;5087449;28;46756;-25
2022/03/28 03:37:42;;;;;;;4.20;3.78;;;17.10;34.80;;;;;;5087717;28;46868;-25
2022/03/28 03:40:13;;;;;;;3.70;3.40;;;17.10;34.80;;;;;;5087658;28;48830;-25
2022/03/28 03:42:39;;;;;;;4.20;3.80;;;17.10;34.90;;;;;;5087721;28;46819;-26
2022/03/28 03:45:08;;;;;;;5.43;3.72;;;17.10;34.90;;;;;;5087475;28;46864;-25
2022/03/28 03:47:35;;;;;;;4.85;4.10;;;17.00;34.80;;;;;;5087444;28;47310;-17
2022/03/28 03:50:02;;;;;;;4.30;3.90;;;17.00;34.80;;;;;;5087451;28;48038;-25
2022/03/28 03:52:28;;;;;;;5.55;3.63;;;17.00;34.90;;;;;;5086947;28;46748;-26
2022/03/28 03:54:55;;;;;;;4.68;3.58;;;17.00;34.90;;;;;;5086881;28;46795;-25
2022/03/28 03:57:23;;;;;;;4.10;3.42;;;17.00;34.90;;;;;;5087030;28;47318;-16
2022/03/28 03:59:50;;;;;;;5.53;4.38;;;16.90;34.80;;;;;;5087259;28;49065;-17
2022/03/28 04:02:16;;;;;;;4.80;4.20;;;16.90;34.90;;;;;;5086996;28;46900;-16
2022/03/28 04:04:43;;;;;;;4.15;3.75;;;16.90;34.90;;;;;;5087351;28;46748;-26
2022/03/28 04:07:10;;;;;;;4.07;3.55;;;16.90;34.90;;;;;;5087110;28;46905;-26
2022/03/28 04:09:36;;;;;;;5.85;4.07;;;16.90;35.00;;;;;;5087308;28;47127;-26
2022/03/28 04:12:04;;;;;;;3.85;3.40;;;16.90;35.00;;;;;;5086604;28;47561;-16
2022/03/28 04:14:32;;;;;;;4.30;3.70;;;16.80;34.90;;;;;;5086896;28;46896;-16
2022/03/28 04:16:59;;;;;;;4.07;3.67;;;16.80;34.90;;;;;;5087130;28;47303;-16
2022/03/28 04:19:25;;;;;;;4.03;3.63;;;16.80;35.00;;;;;;5086966;28;47876;-17
2022/03/28 04:21:52;;;;;;;4.10;3.70;;;16.80;35.00;;;;;;5087148;28;47099;-16
2022/03/28 04:24:20;;;;;;;4.00;3.55;;;16.80;35.00;;;;;;5086948;28;46832;-16
2022/03/28 04:26:47;;;;;;;4.05;3.67;;;16.80;35.00;;;;;;5086975;28;46878;-17
2022/03/28 04:29:14;;;;;;;3.78;3.47;;;16.70;34.90;;;;;;5086533;28;48094;-16
2022/03/28 04:31:42;;;;;;;4.70;4.07;;;16.70;35.00;;;;;;5086590;28;47398;-16
2022/03/28 04:34:09;;;;;;;3.90;3.50;;;16.70;35.10;;;;;;5086603;28;47321;-26
2022/03/28 04:36:36;;;;;;;4.65;3.63;;;16.70;35.10;;;;;;5086681;28;47230;-17
2022/03/28 04:39:03;;;;;;;4.75;3.90;;;16.70;35.10;;;;;;5086155;28;48818;-26
2022/03/28 04:41:30;;;;;;;4.18;3.78;;;16.60;35.10;;;;;;5086567;28;47240;-16
2022/03/28 04:43:57;;;;;;;4.18;3.42;;;16.60;35.00;;;;;;5086206;28;46902;-16
2022/03/28 04:46:23;;;;;;;4.68;3.80;;;16.60;35.10;;;;;;5086544;28;47250;-17
2022/03/28 04:48:52;;;;;;;3.75;3.33;;;16.60;35.20;;;;;;5086148;28;48335;-26
2022/03/28 04:51:18;;;;;;;4.05;3.65;;;16.60;35.10;;;;;;5086245;28;46891;-26
2022/03/28 04:53:45;;;;;;;4.07;3.55;;;16.60;35.20;;;;;;5085735;28;46845;-25
2022/03/28 04:56:12;;;;;;;5.03;3.70;;;16.50;35.10;;;;;;5086522;28;47190;-25
2022/03/28 04:58:38;;;;;;;4.63;4.05;;;16.50;35.20;;;;;;5086401;28;47202;-16
2022/03/28 05:01:05;;;;;;;4.13;3.65;;;16.50;35.10;;;;;;5086223;28;46882;-16
2022/03/28 05:03:32;;;;;;;4.10;3.65;;;16.50;35.10;;;;;;5086033;28;46953;-16
2022/03/28 05:06:00;;;;;;;5.15;3.80;;;16.50;35.20;;;;;;5085579;27;46850;-16
2022/03/28 05:08:26;;;;;;;4.72;3.70;;;16.40;35.10;;;;;;5086024;28;48226;-26
2022/03/28 05:10:53;;;;;;;4.82;3.65;;;16.40;35.20;;;;;;5086048;28;46906;-26
2022/03/28 05:13:20;;;;;;;4.45;3.65;;;16.40;35.20;;;;;;5085798;28;46954;-25
2022/03/28 05:15:47;;;;;;;4.10;3.70;;;16.40;35.20;;;;;;5086221;28;46918;-25
2022/03/28 05:18:14;;;;;;;5.13;3.83;;;16.40;35.20;;;;;;5085688;28;47829;-26
2022/03/28 05:20:41;;;;;;;5.07;3.70;;;16.40;35.20;;;;;;5085931;28;46921;-26
2022/03/28 05:23:09;;;;;;;5.55;3.80;;;16.40;35.20;;;;;;5085632;28;46912;-27
2022/03/28 05:25:36;;;;;;;4.10;3.38;;;16.30;35.20;;;;;;5086036;28;46908;-25
2022/03/28 05:28:03;;;;;;;5.35;3.70;;;16.30;35.20;;;;;;5085624;28;48056;-26
2022/03/28 05:30:30;;;;;;;4.25;3.63;;;16.30;35.30;;;;;;5085919;28;46893;-25
2022/03/28 05:32:56;;;;;;;5.05;3.83;;;16.30;35.30;;;;;;5085519;28;46818;-26
2022/03/28 05:35:23;;;;;;;5.03;3.75;;;16.30;35.30;;;;;;5087539;27;47310;-25
2022/03/28 05:37:50;;;;;;;4.43;4.03;;;16.30;35.30;;;;;;5106035;27;46946;-16
2022/03/28 05:40:18;;;;;;;4.03;3.40;;;16.20;35.20;;;;;;5106322;27;47443;-25
2022/03/28 05:42:44;;;;;;;4.03;3.63;;;16.20;35.20;;;;;;5105042;27;47045;-26
2022/03/28 05:45:12;;;;;;;4.20;3.58;;;16.20;35.30;;;;;;5106449;27;46939;-26
2022/03/28 05:47:39;;;;;;;5.15;3.63;;;16.20;35.30;;;;;;5105435;27;47939;-17
2022/03/28 05:50:06;;;;;;;6.55;3.67;;;16.20;35.30;;;;;;5106224;27;46831;-18
2022/03/28 05:52:33;;;;;;;4.15;3.65;;;16.20;35.30;;;;;;5104398;27;46956;-27
2022/03/28 05:55:00;;;;;;;7.07;3.60;;;16.10;35.40;;;;;;5085722;28;46831;-26
2022/03/28 05:57:28;;;;;;;4.20;3.63;;;16.10;35.40;;;;;;5085026;28;47924;-26
2022/03/28 05:59:55;;;;;;;4.65;3.83;;;16.10;35.40;;;;;;5085466;28;46926;-17
2022/03/28 06:02:22;;;;;;;4.10;3.40;;;16.10;35.30;;;;;;5085174;28;46835;-26
2022/03/28 06:04:48;;;;;;;4.60;3.88;;;16.10;35.40;;;;;;5085794;28;46891;-26
2022/03/28 06:07:15;;;;;;;5.10;3.90;;;16.10;35.40;;;;;;5084950;28;48236;-26
2022/03/28 06:09:42;;;;;;;5.60;3.78;;;16.10;35.40;;;;;;5085170;28;46790;-17
2022/03/28 06:12:10;;;;;;;6.07;3.63;;;16.10;35.40;;;;;;5085176;28;46949;-26
2022/03/28 06:14:38;;;;;;;3.83;3.42;;;16.00;35.40;;;;;;5085699;28;46962;-25
2022/03/28 06:17:04;;;;;;;4.95;3.90;;;16.00;35.40;;;;;;5086916;27;48239;-16
2022/03/28 06:19:31;;;;;;;4.82;3.85;;;16.00;35.40;;;;;;5089189;28;47291;-25
2022/03/28 06:21:58;;;;;;;3.63;3.33;;;16.00;35.40;;;;;;5088940;28;47021;-16
2022/03/28 06:24:25;;;;;;;5.20;3.63;;;16.00;35.40;;;;;;5089365;28;47141;-25
2022/03/28 06:26:51;;;;;;;3.97;3.13;;;16.00;35.50;;;;;;5088845;28;46946;-16
2022/03/28 06:29:18;;;;;;;4.97;3.60;;;16.00;35.40;;;;;;5088892;27;47249;-16
2022/03/28 06:31:46;;;;;;;4.95;3.60;;;16.00;35.50;;;;;;5088794;28;46875;-26
2022/03/28 06:34:13;;;;;;;4.18;3.30;;;15.90;35.50;;;;;;5088801;28;47116;-25
2022/03/28 06:36:41;;;;;;;4.43;3.60;;;15.90;35.50;;;;;;5088565;28;47050;-25
2022/03/28 06:39:07;;;;;;;4.40;3.58;;;15.90;35.60;;;;;;5088291;28;46861;-17
2022/03/28 06:41:34;;;;;;;4.53;3.70;;;15.90;35.50;;;;;;5087550;28;46783;-27
2022/03/28 06:44:01;;;;;;;10.30;3.95;;;15.90;35.80;;;;;;5088513;28;46981;-27
2022/03/28 06:46:28;;;;;;;3.85;3.45;;;15.90;35.90;;;;;;5088192;28;47943;-18
2022/03/28 06:48:57;;;;;;;4.20;3.50;;;15.90;35.80;;;;;;5088400;28;47057;-18
2022/03/28 06:51:24;;;;;;;4.75;3.67;;;15.90;35.90;;;;;;5088122;28;46901;-27
2022/03/28 06:53:51;;;;;;;7.18;3.80;;;15.90;36.00;;;;;;5087735;28;46823;-26
2022/03/28 06:56:18;;;;;;;5.47;3.15;;;16.00;36.10;;;;;;5088315;28;48199;-26
2022/03/28 06:58:44;;;;;;;4.45;3.42;;;16.00;36.20;;;;;;5088258;28;46902;-26
2022/03/28 07:01:11;;;;;;;6.00;3.90;;;16.00;36.10;;;;;;5087889;28;46867;-26
2022/03/28 07:03:38;;;;;;;4.93;4.43;;;16.00;36.20;;;;;;5088078;28;47048;-17
2022/03/28 07:06:07;;;;;;;5.50;3.88;;;16.00;36.20;;;;;;5088027;28;48029;-26
2022/03/28 07:08:34;;;;;;;7.93;3.97;;;16.00;36.10;;;;;;5087903;28;47460;-18
2022/03/28 07:11:02;;;;;;;4.32;3.40;;;16.00;36.10;;;;;;5088024;28;46913;-26
2022/03/28 07:13:28;;;;;;;5.00;3.92;;;16.00;36.20;;;;;;5088099;28;47118;-17
2022/03/28 07:15:55;;;;;;;9.45;4.97;;;16.10;36.10;;;;;;5087963;28;47064;-26
2022/03/28 07:18:22;;;;;;;8.30;6.28;;;16.10;36.30;;;;;;5087741;28;46767;-26
2022/03/28 07:20:50;;;;;;;11.30;6.63;;;16.00;37.00;;;;;;5087691;28;46954;-18
2022/03/28 07:23:18;;;;;;;11.23;7.45;;;15.90;37.50;;;;;;5087833;28;46830;-17
2022/03/28 07:25:45;;;;;;;11.43;6.93;;;15.80;37.90;;;;;;5087410;28;47992;-17
2022/03/28 07:28:12;;;;;;;9.95;6.80;;;15.80;38.00;;;;;;5086868;27;46854;-17
2022/03/28 07:30:39;;;;;;;16.30;7.47;;;15.90;38.20;;;;;;5087764;28;46925;-26
2022/03/28 07:33:06;;;;;;;10.75;7.55;;;15.90;38.30;;;;;;5086592;28;46921;-17
2022/03/28 07:35:35;;;;;;;10.38;8.00;;;15.80;38.50;;;;;;5085765;28;49023;-26
2022/03/28 07:38:01;;;;;;;11.43;7.72;;;15.80;38.70;;;;;;5087141;27;46989;-26
2022/03/28 07:40:30;;;;;;;10.40;8.20;;;15.80;39.10;;;;;;5088492;27;46986;-17
2022/03/28 07:42:57;;;;;;;15.23;8.85;;;15.80;39.00;;;;;;5101215;27;47122;-17
2022/03/28 07:45:24;;;;;;;16.20;8.48;;;15.80;39.30;;;;;;5093701;27;47706;-29
2022/03/28 07:47:51;;;;;;;12.07;8.00;;;15.80;39.30;;;;;;5092123;27;47088;-18
2022/03/28 07:50:17;;;;;;;11.27;8.07;;;15.80;39.40;;;;;;5098013;27;47193;-27
2022/03/28 07:52:44;;;;;;;10.68;8.40;;;15.80;39.50;;;;;;5094377;27;46893;-27
2022/03/28 07:55:11;;;;;;;12.90;8.50;;;15.80;39.60;;;;;;5085186;28;47933;-18
2022/03/28 07:57:40;;;;;;;11.18;7.90;;;15.80;39.50;;;;;;5085264;28;46925;-17
2022/03/28 08:00:10;;;;;;;12.70;8.40;;;15.80;39.60;;;;;;5087292;28;46863;-26
2022/03/28 08:02:37;;;;;;;14.38;9.18;;;15.80;39.60;;;;;;5086739;28;46905;-26
2022/03/28 08:05:04;;;;;;;12.65;8.27;;;15.90;39.90;;;;;;5087566;28;47823;-26
2022/03/28 08:07:31;;;;;;;16.60;8.38;;;15.90;39.80;;;;;;5086840;28;46943;-17
2022/03/28 08:09:58;;;;;;;17.08;8.70;;;15.90;39.80;;;;;;5087312;28;46801;-18
2022/03/28 08:12:25;;;;;;;13.30;8.02;;;15.90;39.70;;;;;;5087036;28;47291;-18
2022/03/28 08:14:53;;;;;;;13.70;8.55;;;16.00;39.70;;;;;;5086817;28;46904;-17
2022/03/28 08:17:20;;;;;;;15.98;9.43;;;16.00;39.70;;;;;;5085929;28;46846;-18
2022/03/28 08:19:47;;;;;;;15.27;8.50;;;16.00;39.70;;;;;;5086672;28;46956;-28
2022/03/28 08:22:14;;;;;;;12.05;8.10;;;16.00;39.70;;;;;;5086417;28;46963;-18
2022/03/28 08:24:40;;;;;;;11.30;8.27;;;16.10;39.70;;;;;;5086417;28;48383;-26
2022/03/28 08:27:07;;;;;;;12.80;7.88;;;16.10;39.60;;;;;;5086775;28;47341;-18
2022/03/28 08:29:34;;;;;;;12.65;8.13;;;16.10;39.50;;;;;;5086194;28;46926;-27
2022/03/28 08:32:02;;;;;;;11.77;8.68;;;16.10;39.30;;;;;;5086217;28;46900;-19
2022/03/28 08:34:29;;;;;;;10.32;7.60;;;16.10;39.20;;;;;;5083888;28;46978;-27
2022/03/28 08:36:57;;;;;;;10.40;7.97;;;16.20;39.20;;;;;;5086412;28;47348;-27
2022/03/28 08:39:23;;;;;;;12.20;7.93;;;16.20;39.10;;;;;;5085876;28;46885;-18
2022/03/28 08:41:50;;;;;;;12.70;7.65;;;16.20;39.10;;;;;;5086409;28;46880;-18
2022/03/28 08:44:17;;;;;;;12.65;7.72;;;16.20;39.00;;;;;;5085758;28;47897;-27
2022/03/28 08:46:45;;;;;;;11.77;8.75;;;16.20;39.10;;;;;;5086186;28;46834;-27
2022/03/28 08:49:13;;;;;;;12.07;7.90;;;16.20;39.20;;;;;;5085647;28;47027;-17
2022/03/28 08:51:41;;;;;;;23.83;8.43;;;16.20;39.20;;;;;;5086444;28;46834;-19
2022/03/28 08:54:08;;;;;;;16.25;8.65;;;16.30;38.80;;;;;;5085879;28;48059;-17
2022/03/28 08:56:35;;;;;;;11.25;7.55;;;16.40;39.00;;;;;;5086381;28;47429;-27
2022/03/28 08:59:04;;;;;;;13.57;8.18;;;16.50;39.10;;;;;;5084714;28;46914;-27
2022/03/28 09:01:31;;;;;;;13.98;7.45;;;16.50;39.20;;;;;;5086274;28;46897;-17
2022/03/28 09:04:03;;;;;;;11.52;8.05;;;16.50;39.00;;;;;;5084627;28;47810;-17
2022/03/28 09:06:32;;;;;;;13.23;8.15;;;16.60;39.00;;;;;;5086188;28;47542;-26
2022/03/28 09:09:17;;;;;;;11.85;7.60;;;16.60;39.10;;;;;;5086175;28;46852;-17
2022/03/28 09:11:44;;;;;;;13.63;7.75;;;16.60;38.80;;;;;;5086503;28;46905;-18
2022/03/28 09:14:13;;;;;;;12.13;8.25;;;16.60;38.70;;;;;;5085875;28;48256;-19
2022/03/28 09:16:40;;;;;;;11.18;7.95;;;16.70;38.70;;;;;;5086232;28;46893;-26
2022/03/28 09:19:10;;;;;;;8.95;7.00;;;16.60;38.60;;;;;;5086023;28;46971;-26
2022/03/28 09:21:38;;;;;;;14.13;7.13;;;16.70;38.50;;;;;;5086231;28;46906;-26
2022/03/28 09:24:08;;;;;;;10.90;7.45;;;16.70;38.50;;;;;;5086067;28;47893;-17
2022/03/28 09:26:35;;;;;;;12.30;7.18;;;16.70;38.50;;;;;;5085570;28;47311;-26
2022/03/28 09:29:02;;;;;;;9.23;7.35;;;16.70;38.40;;;;;;5085938;28;46909;-17
2022/03/28 09:31:30;;;;;;;9.48;7.00;;;16.70;38.20;;;;;;5085852;28;47087;-18
2022/03/28 09:34:15;;;;;;;11.90;7.05;;;16.80;38.20;;;;;;5085495;28;46996;-18
2022/03/28 09:36:48;;;;;;;9.20;7.07;;;16.80;38.10;;;;;;5085641;28;46847;-26
2022/03/28 09:39:17;;;;;;;12.43;8.23;;;16.90;38.30;;;;;;5085899;28;46908;-27
2022/03/28 09:41:45;;;;;;;12.50;8.43;;;16.90;38.40;;;;;;5085938;28;47176;-26
2022/03/28 09:44:12;;;;;;;11.88;8.20;;;17.00;38.40;;;;;;5085212;28;48121;-26
2022/03/28 09:46:39;;;;;;;14.60;7.97;;;17.00;38.80;;;;;;5085402;28;47041;-26
2022/03/28 09:49:08;;;;;;;15.13;8.48;;;17.10;38.70;;;;;;5085651;28;46885;-26
2022/03/28 09:51:36;;;;;;;12.55;8.38;;;17.10;38.40;;;;;;5084074;28;47321;-26
2022/03/28 09:54:04;;;;;;;13.35;8.63;;;17.20;38.30;;;;;;5083584;28;49033;-18
2022/03/28 09:56:31;;;;;;;12.77;9.13;;;17.20;38.20;;;;;;5082923;28;47024;-18
2022/03/28 09:59:00;;;;;;;13.85;8.13;;;17.20;37.90;;;;;;5084345;28;46891;-19
2022/03/28 10:01:29;;;;;;;12.77;8.63;;;17.30;37.90;;;;;;5085551;28;47314;-24
2022/03/28 10:03:58;;;;;;;12.18;8.07;;;17.30;37.80;;;;;;5085083;28;46818;-18
2022/03/28 10:06:25;;;;;;;12.98;8.02;;;17.30;37.80;;;;;;5084814;28;47437;-18
2022/03/28 10:08:51;;;;;;;12.73;7.65;;;17.40;37.80;;;;;;5085143;28;46925;-26
2022/03/28 10:11:20;;;;;;;11.27;7.88;;;17.40;37.90;;;;;;5085095;28;46867;-27
2022/03/28 10:13:47;;;;;;;12.27;7.50;;;17.40;37.80;;;;;;5085150;28;46847;-26
2022/03/28 10:16:13;;;;;;;12.38;7.80;;;17.50;37.80;;;;;;5085038;28;46852;-26
2022/03/28 10:18:41;;;;;;;12.25;7.88;;;17.50;37.80;;;;;;5082050;28;47320;-25
2022/03/28 10:21:09;;;;;;;15.57;8.65;;;17.60;37.80;;;;;;5083425;28;47188;-19
2022/03/28 10:23:40;;;;;;;17.27;9.40;;;17.80;36.40;;;;;;5081868;28;48927;-26
2022/03/28 10:26:08;;;;;;;15.13;8.60;;;18.00;35.30;;;;;;5083150;28;46948;-29
2022/03/28 10:28:37;;;;;;;21.90;8.93;;;18.10;35.20;;;;;;5082714;28;47234;-18
2022/03/28 10:31:13;;;;;;;16.40;9.55;;;18.20;35.00;;;;;;5083618;28;47290;-29
2022/03/28 10:33:47;;;;;;;17.15;9.20;;;18.40;35.10;;;;;;5083304;28;47816;-16
2022/03/28 10:36:24;;;;;;;15.93;9.25;;;18.60;34.30;;;;;;5083825;28;46875;-17
2022/03/28 10:38:52;;;;;;;14.25;9.70;;;18.70;34.30;;;;;;5085141;28;46905;-17
2022/03/28 10:41:19;;;;;;;15.48;10.45;;;18.80;32.70;;;;;;5085538;28;46918;-28
2022/03/28 10:43:47;;;;;;;13.32;9.27;;;18.90;32.70;;;;;;5084626;28;48123;-15
2022/03/28 10:46:14;;;;;;;16.30;10.07;;;19.00;31.80;;;;;;5084605;28;46981;-18
2022/03/28 10:48:42;;;;;;;15.48;9.93;;;19.10;31.50;;;;;;5084610;28;47008;-27
2022/03/28 10:51:09;;;;;;;15.43;10.45;;;19.20;31.50;;;;;;5084923;28;47093;-18
2022/03/28 10:53:40;;;;;;;14.55;11.65;;;19.30;30.70;;;;;;5085516;27;46934;-27
2022/03/28 10:56:08;;;;;;;22.02;14.88;;;19.30;30.60;;;;;;5084608;28;46909;-17
2022/03/28 10:58:37;;;;;;;15.70;12.65;;;19.40;30.30;;;;;;5084755;28;46768;-17
2022/03/28 11:01:30;;;;;;;15.55;10.95;;;19.50;30.10;;;;;;5084831;28;47097;-27
2022/03/28 11:04:00;;;;;;;15.63;9.93;;;19.60;30.50;;;;;;5085805;27;46922;-17
2022/03/28 11:07:00;;;;;;;17.23;10.20;;;19.60;30.50;;;;;;5087845;28;47017;-25
2022/03/28 11:09:43;;;;;;;17.40;9.85;;;19.80;30.40;;;;;;4985248;28;46876;-25
2022/03/28 11:12:11;;;;;;;17.17;11.07;;;19.90;30.50;;;;;;4985466;28;47015;-25
2022/03/28 11:14:56;;;;;;;14.45;10.35;;;20.00;30.70;;;;;;5042883;28;49068;-25
2022/03/28 11:17:25;;;;;;;19.70;12.15;;;20.10;30.80;;;;;;5087800;28;46943;-25
2022/03/28 11:20:09;;;;;;;21.65;12.80;;;20.20;30.60;;;;;;5087926;28;46867;-18
2022/03/28 11:22:57;;;;;;;19.23;11.95;;;20.30;30.60;;;;;;5088022;28;47290;-16
2022/03/28 11:25:44;;;;;;;18.35;11.10;;;20.40;30.60;;;;;;5087680;28;47924;-16
2022/03/28 11:28:15;;;;;;;19.73;11.32;;;20.50;30.30;;;;;;5087894;28;47242;-16
2022/03/28 11:31:02;;;;;;;17.23;10.88;;;20.60;30.10;;;;;;5087649;28;46899;-25
2022/03/28 11:33:31;;;;;;;17.67;9.88;;;20.70;29.90;;;;;;5087629;28;47037;-17
2022/03/28 11:35:59;;;;;;;17.05;10.70;;;20.80;30.00;;;;;;5087361;28;47809;-18
2022/03/28 11:38:26;;;;;;;17.42;10.80;;;21.00;30.10;;;;;;5087413;28;46983;-18
2022/03/28 11:40:54;;;;;;;16.10;10.70;;;21.00;29.70;;;;;;5087477;28;46942;-18
2022/03/28 11:43:28;;;;;;;17.73;10.57;;;21.20;29.80;;;;;;5087617;28;46908;-18
2022/03/28 11:45:55;;;;;;;18.83;12.05;;;21.30;29.50;;;;;;5087603;28;47139;-27
2022/03/28 11:48:22;;;;;;;20.02;11.52;;;21.40;29.70;;;;;;5087051;28;46815;-18
2022/03/28 11:50:50;;;;;;;17.40;12.18;;;21.60;29.30;;;;;;5087318;28;46922;-19
2022/03/28 11:53:19;;;;;;;16.83;11.45;;;21.70;29.00;;;;;;5086810;28;46886;-17
2022/03/28 11:55:49;;;;;;;18.95;11.55;;;21.80;28.70;;;;;;5087175;28;48834;-26
2022/03/28 11:58:16;;;;;;;18.77;11.10;;;21.90;27.60;;;;;;5086642;28;46956;-19
2022/03/28 12:00:45;;;;;;;17.27;10.13;;;21.90;27.70;;;;;;5088051;27;46865;-26
2022/03/28 12:03:13;;;;;;;15.10;9.95;;;22.00;27.80;;;;;;5087187;28;46906;-19
2022/03/28 12:05:41;;;;;;;15.85;10.55;;;22.10;27.50;;;;;;5086758;28;49072;-18
2022/03/28 12:08:09;;;;;;;14.45;9.80;;;22.20;26.80;;;;;;5086867;28;47032;-19
2022/03/28 12:10:37;;;;;;;13.07;9.55;;;22.30;27.20;;;;;;5086849;28;46831;-16
2022/03/28 12:13:05;;;;;;;18.73;9.00;;;22.40;26.30;;;;;;5087033;28;46971;-26
2022/03/28 12:15:34;;;;;;;15.35;10.10;;;22.50;25.50;;;;;;5086557;27;48101;-18
2022/03/28 12:18:02;;;;;;;14.75;9.25;;;22.60;25.30;;;;;;5086495;28;46942;-26
2022/03/28 12:20:29;;;;;;;29.42;10.05;;;22.70;25.10;;;;;;5087048;28;46821;-27
2022/03/28 12:22:58;;;;;;;13.00;8.55;;;22.80;24.50;;;;;;5086970;28;47305;-27
2022/03/28 12:25:29;;;;;;;18.75;7.95;;;22.90;24.90;;;;;;5087038;28;48168;-27
2022/03/28 12:27:56;;;;;;;11.20;7.63;;;23.00;24.90;;;;;;5086675;28;47421;-27
2022/03/28 12:30:28;;;;;;;11.05;7.70;;;23.10;25.30;;;;;;5086873;28;46910;-19
2022/03/28 12:32:55;;;;;;;13.40;7.65;;;23.20;25.50;;;;;;5086477;28;47316;-19
2022/03/28 12:35:23;;;;;;;11.90;6.93;;;23.20;25.60;;;;;;5086336;28;49081;-27
2022/03/28 12:38:00;;;;;;;9.68;6.63;;;23.10;25.60;;;;;;5086542;28;46902;-18
2022/03/28 12:40:29;;;;;;;8.88;6.28;;;23.10;26.10;;;;;;5086622;28;47022;-18
2022/03/28 12:42:56;;;;;;;9.82;6.18;;;23.10;26.90;;;;;;5086705;28;47096;-27
2022/03/28 12:45:25;;;;;;;9.00;5.85;;;23.10;26.80;;;;;;5086373;28;46939;-19
2022/03/28 12:48:00;;;;;;;7.90;5.53;;;23.20;27.00;;;;;;5086197;28;47673;-27
2022/03/28 12:50:27;;;;;;;6.75;5.20;;;23.20;26.90;;;;;;5086669;28;46906;-18